createdAt,value
2018-11-13T00:07:30.241Z,79.9
2018-11-13T00:22:43.853Z,80.5
2018-11-13T00:37:58.038Z,81.2
2018-11-13T00:53:12.420Z,82
2018-11-13T01:08:26.736Z,82.8
2018-11-13T01:23:40.609Z,83.4
2018-11-13T01:38:49.114Z,83.7
2018-11-13T01:54:08.857Z,84
2018-11-13T02:09:23.305Z,84.2
2018-11-13T02:24:37.456Z,84.3
2018-11-13T02:39:51.482Z,84.3
2018-11-13T02:55:05.686Z,84.2
2018-11-13T03:10:21.559Z,84
2018-11-13T03:25:33.648Z,83.6
2018-11-13T03:40:47.704Z,82.9
2018-11-13T03:55:55.038Z,81.9
2018-11-13T04:11:16.028Z,81.6
2018-11-13T04:26:30.126Z,81.5
2018-11-13T04:41:43.997Z,81.9
2018-11-13T04:56:58.066Z,82.2
2018-11-13T05:12:12.226Z,82.5
2018-11-13T05:27:26.646Z,82.5
2018-11-13T05:42:40.491Z,81.8
2018-11-13T05:57:54.791Z,81.3
2018-11-13T06:13:01.200Z,81.6
2018-11-13T06:28:23.053Z,80.9
2018-11-13T06:43:37.187Z,80.9
2018-11-13T06:58:51.552Z,80.8
2018-11-13T07:14:05.648Z,81.4
2018-11-13T07:29:18.950Z,79.9
2018-11-13T07:44:34.523Z,79.8
2018-11-13T07:59:48.645Z,79.9
2018-11-13T08:15:03.279Z,77.1
2018-11-13T08:30:09.878Z,77.4
2018-11-13T08:45:32.586Z,76.8
2018-11-13T09:00:47.278Z,75.6
2018-11-13T09:16:02.748Z,76.2
2018-11-13T09:31:16.778Z,77.7
2018-11-13T09:46:29.937Z,77.9
2018-11-13T10:01:47.892Z,78.3
2018-11-13T10:17:01.411Z,80.5
2018-11-13T10:32:16.153Z,81.5
2018-11-13T10:47:22.069Z,83.6
2018-11-13T11:02:46.036Z,85.3
2018-11-13T11:18:01.261Z,86.8
2018-11-13T11:33:15.745Z,87.6
2018-11-13T11:48:30.754Z,88
2018-11-13T12:03:44.692Z,88.7
2018-11-13T12:19:01.425Z,88.8
2018-11-13T12:34:16.317Z,88.5
2018-11-13T12:49:31.411Z,88.8
2018-11-13T13:04:35.637Z,87.8
2018-11-13T13:20:01.856Z,86.3
2018-11-13T13:35:16.964Z,85.7
2018-11-13T13:50:32.057Z,83.9
2018-11-13T14:05:46.843Z,85.8
2018-11-13T14:20:57.289Z,87
2018-11-13T14:36:16.821Z,86.8
2018-11-13T14:51:32.045Z,85.8
2018-11-13T15:06:47.093Z,85.2
2018-11-13T15:21:50.260Z,84.4
2018-11-13T15:37:16.940Z,83
2018-11-13T15:52:32.330Z,82.3
2018-11-13T16:07:46.799Z,82.5
2018-11-13T16:23:01.983Z,82.7
2018-11-13T16:38:11.130Z,83.8
2018-11-13T16:53:31.208Z,83.7
2018-11-13T17:08:46.238Z,81.8
2018-11-13T17:24:00.602Z,80.3
2018-11-13T17:39:15.946Z,78.5
2018-11-13T17:54:30.437Z,77.8
2018-11-13T18:09:44.884Z,77.5
2018-11-13T18:24:59.207Z,77.2
2018-11-13T18:40:13.843Z,76
2018-11-13T18:55:20.984Z,74.2
2018-11-13T19:10:43.233Z,78
2018-11-13T19:25:58.782Z,76.9
2018-11-13T19:41:12.304Z,74.5
2018-11-13T19:56:27.051Z,72.5
2018-11-13T20:11:39.765Z,73.9
2018-11-13T20:26:55.309Z,76.4
2018-11-13T20:42:09.956Z,76.6
2018-11-13T20:57:24.504Z,76.5
2018-11-13T21:12:29.146Z,78
2018-11-13T21:27:52.969Z,79
2018-11-13T21:43:07.173Z,79.5
2018-11-13T21:58:21.480Z,76.8
2018-11-13T22:13:36.009Z,76.5
2018-11-13T22:28:46.428Z,76.4
2018-11-13T22:44:05.222Z,76
2018-11-13T22:59:18.528Z,76.5
2018-11-13T23:14:32.779Z,76.7
2018-11-13T23:29:47.140Z,76.5
2018-11-13T23:45:01.085Z,76.5
